createdAt,value
2023-01-07T00:00:18.154Z,7.53
2023-01-07T00:03:11.515Z,7.51
2023-01-07T00:05:43.405Z,7.54
2023-01-07T00:08:15.168Z,7.51
2023-01-07T00:10:46.889Z,7.50
2023-01-07T00:13:19.143Z,7.53
2023-01-07T00:15:51.109Z,7.50
2023-01-07T00:18:22.867Z,7.52
2023-01-07T00:20:57.071Z,7.54
2023-01-07T00:23:29.624Z,7.51
2023-01-07T00:26:05.668Z,7.44
2023-01-07T00:28:39.374Z,7.41
2023-01-07T00:31:13.775Z,7.40
2023-01-07T00:33:52.052Z,7.42
2023-01-07T00:36:26.119Z,7.44
2023-01-07T00:38:59.135Z,7.44
2023-01-07T00:41:30.926Z,7.49
2023-01-07T00:44:03.111Z,7.41
2023-01-07T00:46:35.450Z,7.41
2023-01-07T00:49:07.241Z,7.42
2023-01-07T00:51:38.928Z,7.25
2023-01-07T00:54:11.056Z,7.12
2023-01-07T00:56:43.250Z,7.08
2023-01-07T00:59:15.451Z,7.23
2023-01-07T01:01:46.772Z,7.24
2023-01-07T01:04:19.435Z,7.31
2023-01-07T01:06:49.806Z,7.33
2023-01-07T01:09:22.338Z,7.32
2023-01-07T01:11:54.102Z,7.26
2023-01-07T01:14:26.151Z,7.31
2023-01-07T01:16:58.072Z,7.34
2023-01-07T01:19:30.040Z,7.36
2023-01-07T01:22:01.874Z,7.37
2023-01-07T01:24:34.030Z,7.26
2023-01-07T01:27:06.896Z,7.26
2023-01-07T01:29:38.835Z,7.23
2023-01-07T01:32:11.142Z,7.29
2023-01-07T01:34:43.823Z,7.23
2023-01-07T01:37:15.777Z,7.25
2023-01-07T01:39:47.649Z,7.26
2023-01-07T01:42:22.357Z,7.09
2023-01-07T01:44:56.528Z,7.05
2023-01-07T01:47:39.743Z,7.10
2023-01-07T01:50:24.078Z,7.19
2023-01-07T01:53:01.974Z,7.21
2023-01-07T01:55:38.674Z,7.12
2023-01-07T01:58:17.987Z,7.07
2023-01-07T02:00:50.003Z,7.13
2023-01-07T02:03:25.402Z,7.19
2023-01-07T02:05:57.271Z,7.20
2023-01-07T02:08:29.541Z,7.16
2023-01-07T02:11:17.196Z,7.18
2023-01-07T02:14:09.055Z,7.15
2023-01-07T02:16:49.168Z,7.07
2023-01-07T02:19:47.829Z,6.99
2023-01-07T02:22:39.541Z,7.07
2023-01-07T02:25:35.125Z,7.13
2023-01-07T02:28:29.600Z,7.16
2023-01-07T02:31:29.200Z,7.10
2023-01-07T02:34:06.196Z,7.18
2023-01-07T02:36:51.006Z,7.17
2023-01-07T02:39:37.905Z,7.15
2023-01-07T02:42:21.211Z,7.17
2023-01-07T02:45:00.933Z,7.17
2023-01-07T02:47:38.663Z,7.15
2023-01-07T02:50:12.081Z,7.06
2023-01-07T02:52:44.061Z,7.10
2023-01-07T02:55:19.382Z,7.10
2023-01-07T02:58:24.432Z,7.11
2023-01-07T03:01:26.441Z,7.11
2023-01-07T03:04:18.342Z,7.13
2023-01-07T03:07:06.703Z,7.12
2023-01-07T03:09:48.854Z,7.13
2023-01-07T03:12:28.085Z,6.99
2023-01-07T03:15:05.864Z,7.03
2023-01-07T03:17:43.096Z,7.06
2023-01-07T03:20:18.165Z,7.04
2023-01-07T03:22:51.181Z,6.82
2023-01-07T03:25:25.280Z,6.81
2023-01-07T03:28:00.917Z,6.78
2023-01-07T03:30:34.400Z,6.67
2023-01-07T03:33:13.494Z,6.63
2023-01-07T03:35:50.160Z,6.72
2023-01-07T03:38:23.960Z,6.68
2023-01-07T03:40:58.378Z,6.74
2023-01-07T03:43:30.350Z,6.79
2023-01-07T03:46:02.750Z,6.87
2023-01-07T03:48:34.515Z,6.97
2023-01-07T03:51:06.665Z,7.02
2023-01-07T03:53:38.475Z,7.03
2023-01-07T03:56:10.452Z,7.07
2023-01-07T03:58:42.257Z,6.91
2023-01-07T04:01:14.721Z,6.99
2023-01-07T04:03:46.691Z,7.06
2023-01-07T04:06:17.898Z,7.06
2023-01-07T04:08:49.648Z,7.07
2023-01-07T04:11:22.046Z,7.08
2023-01-07T04:13:54.146Z,6.99
2023-01-07T04:16:25.958Z,7.02
2023-01-07T04:18:57.958Z,7.04
2023-01-07T04:21:30.015Z,7.04
2023-01-07T04:24:02.057Z,6.94
2023-01-07T04:26:33.891Z,7.06
2023-01-07T04:29:05.767Z,6.93
2023-01-07T04:31:37.967Z,6.90
2023-01-07T04:34:10.226Z,6.88
2023-01-07T04:36:42.149Z,7.00
2023-01-07T04:39:14.620Z,6.96
2023-01-07T04:41:48.041Z,7.04
2023-01-07T04:44:20.732Z,7.10
2023-01-07T04:46:52.832Z,7.09
2023-01-07T04:49:24.988Z,7.07
2023-01-07T04:51:57.395Z,7.11
2023-01-07T04:54:29.675Z,7.15
2023-01-07T04:57:02.050Z,7.15
2023-01-07T04:59:34.257Z,7.20
2023-01-07T05:02:06.570Z,7.23
2023-01-07T05:04:38.384Z,7.24
2023-01-07T05:07:10.770Z,7.22
2023-01-07T05:09:42.673Z,7.15
2023-01-07T05:12:14.920Z,7.21
2023-01-07T05:14:47.099Z,7.18
2023-01-07T05:17:19.091Z,7.19
2023-01-07T05:19:53.071Z,7.13
2023-01-07T05:22:25.089Z,7.13
2023-01-07T05:24:57.882Z,7.17
2023-01-07T05:27:29.079Z,7.21
2023-01-07T05:30:01.341Z,7.24
2023-01-07T05:32:33.313Z,7.25
2023-01-07T05:35:04.557Z,7.27
2023-01-07T05:37:36.576Z,7.22
2023-01-07T05:40:12.160Z,7.00
2023-01-07T05:42:44.748Z,7.12
2023-01-07T05:45:17.085Z,7.16
2023-01-07T05:47:49.383Z,7.02
2023-01-07T05:50:21.676Z,7.07
2023-01-07T05:52:55.035Z,7.02
2023-01-07T05:55:26.750Z,7.07
2023-01-07T05:57:58.563Z,7.15
2023-01-07T06:00:30.267Z,7.15
2023-01-07T06:03:02.071Z,7.12
2023-01-07T06:05:33.813Z,7.12
2023-01-07T06:08:06.011Z,7.05
2023-01-07T06:10:37.952Z,6.92
2023-01-07T06:13:09.910Z,6.87
2023-01-07T06:15:41.689Z,6.98
2023-01-07T06:18:13.632Z,7.03
2023-01-07T06:20:45.743Z,7.06
2023-01-07T06:23:17.935Z,7.07
2023-01-07T06:25:49.705Z,7.07
2023-01-07T06:28:22.003Z,7.07
2023-01-07T06:30:55.012Z,7.04
2023-01-07T06:33:26.710Z,7.07
2023-01-07T06:35:58.446Z,7.07
2023-01-07T06:38:30.170Z,7.07
2023-01-07T06:41:02.514Z,7.07
2023-01-07T06:43:34.726Z,7.07
2023-01-07T06:46:06.914Z,7.02
2023-01-07T06:48:38.708Z,7.02
2023-01-07T06:51:10.698Z,7.01
2023-01-07T06:53:42.583Z,6.90
2023-01-07T06:56:14.390Z,6.94
2023-01-07T06:58:46.174Z,6.93
2023-01-07T07:01:18.588Z,6.96
2023-01-07T07:03:50.473Z,6.96
2023-01-07T07:06:22.198Z,6.94
2023-01-07T07:08:53.895Z,6.94
2023-01-07T07:11:25.589Z,6.93
2023-01-07T07:13:59.777Z,6.91
2023-01-07T07:16:32.756Z,6.90
2023-01-07T07:19:04.802Z,6.83
2023-01-07T07:21:36.927Z,6.72
2023-01-07T07:24:09.387Z,6.61
2023-01-07T07:26:41.074Z,6.63
2023-01-07T07:29:13.104Z,6.65
2023-01-07T07:31:44.929Z,6.72
2023-01-07T07:34:16.851Z,6.73
2023-01-07T07:36:48.599Z,6.76
2023-01-07T07:39:20.539Z,6.77
2023-01-07T07:41:52.222Z,6.80
2023-01-07T07:44:24.393Z,6.76
2023-01-07T07:46:56.150Z,6.78
2023-01-07T07:49:27.977Z,6.79
2023-01-07T07:51:59.933Z,6.75
2023-01-07T07:54:31.763Z,6.78
2023-01-07T07:57:03.920Z,6.83
2023-01-07T07:59:36.143Z,6.78
2023-01-07T08:02:10.134Z,6.81
2023-01-07T08:04:42.111Z,6.81
2023-01-07T08:07:14.105Z,6.86
2023-01-07T08:10:04.800Z,6.86
2023-01-07T08:12:39.512Z,6.89
2023-01-07T08:15:12.716Z,6.91
2023-01-07T08:17:44.737Z,6.91
2023-01-07T08:20:16.557Z,6.95
2023-01-07T08:22:48.506Z,6.99
2023-01-07T08:25:21.134Z,7.02
2023-01-07T08:27:52.984Z,7.03
2023-01-07T08:30:25.304Z,7.07
2023-01-07T08:32:57.544Z,7.09
2023-01-07T08:35:29.576Z,7.05
2023-01-07T08:38:06.034Z,7.06
2023-01-07T08:40:39.208Z,7.07
2023-01-07T08:43:12.341Z,7.12
2023-01-07T08:45:48.957Z,7.14
2023-01-07T08:48:21.502Z,7.14
2023-01-07T08:50:55.025Z,7.16
2023-01-07T08:53:27.001Z,7.10
2023-01-07T08:55:59.122Z,7.12
2023-01-07T08:58:31.467Z,7.20
2023-01-07T09:01:05.772Z,7.24
2023-01-07T09:03:37.806Z,7.30
2023-01-07T09:06:10.351Z,7.30
2023-01-07T09:08:42.179Z,7.28
2023-01-07T09:11:14.231Z,7.31
2023-01-07T09:13:46.490Z,7.33
2023-01-07T09:16:18.550Z,7.26
2023-01-07T09:18:50.719Z,7.31
2023-01-07T09:21:22.790Z,7.34
2023-01-07T09:23:55.631Z,7.36
2023-01-07T09:26:28.280Z,7.30
2023-01-07T09:29:00.185Z,7.36
2023-01-07T09:31:32.440Z,7.41
2023-01-07T09:34:04.429Z,7.42
2023-01-07T09:36:36.174Z,7.43
2023-01-07T09:39:07.996Z,7.46
2023-01-07T09:41:52.249Z,7.49
2023-01-07T09:44:34.914Z,7.48
2023-01-07T09:47:07.577Z,7.48
2023-01-07T09:49:41.093Z,7.49
2023-01-07T09:52:19.002Z,7.56
2023-01-07T09:55:06.762Z,7.59
2023-01-07T09:57:38.625Z,7.60
2023-01-07T10:00:21.941Z,7.59
2023-01-07T10:02:57.437Z,7.52
2023-01-07T10:05:37.818Z,7.47
2023-01-07T10:08:29.753Z,7.60
2023-01-07T10:11:19.277Z,7.68
2023-01-07T10:14:10.946Z,7.56
2023-01-07T10:16:50.222Z,7.63
2023-01-07T10:19:28.112Z,7.59
2023-01-07T10:22:02.528Z,7.63
2023-01-07T10:24:39.138Z,7.70
2023-01-07T10:27:15.194Z,7.74
2023-01-07T10:29:50.900Z,7.78
2023-01-07T10:32:25.445Z,7.86
2023-01-07T10:35:00.262Z,7.81
2023-01-07T10:37:35.139Z,7.86
2023-01-07T10:40:26.472Z,7.85
2023-01-07T10:43:08.436Z,7.85
2023-01-07T10:46:16.242Z,7.89
2023-01-07T10:49:08.375Z,7.88
2023-01-07T10:52:01.167Z,7.93
2023-01-07T10:54:56.796Z,7.92
2023-01-07T10:57:32.425Z,7.93
2023-01-07T11:00:09.664Z,7.94
2023-01-07T11:02:47.531Z,8.01
2023-01-07T11:05:21.246Z,8.01
2023-01-07T11:07:57.738Z,8.03
2023-01-07T11:10:34.229Z,8.00
2023-01-07T11:13:13.827Z,8.02
2023-01-07T11:15:50.013Z,8.06
2023-01-07T11:18:25.948Z,8.10
2023-01-07T11:20:59.214Z,8.14
2023-01-07T11:23:34.986Z,8.19
2023-01-07T11:26:17.113Z,8.27
2023-01-07T11:28:54.623Z,8.31
2023-01-07T11:31:46.945Z,8.39
2023-01-07T11:34:28.030Z,8.45
2023-01-07T11:36:59.883Z,8.38
2023-01-07T11:39:34.296Z,8.41
2023-01-07T11:42:36.291Z,8.43
2023-01-07T11:45:16.418Z,8.48
2023-01-07T11:47:58.912Z,8.56
2023-01-07T11:50:35.117Z,8.52
2023-01-07T11:53:24.786Z,8.59
2023-01-07T11:56:02.374Z,8.60
2023-01-07T11:58:39.300Z,8.64
2023-01-07T12:01:21.907Z,8.64
2023-01-07T12:04:20.099Z,8.62
2023-01-07T12:06:54.702Z,8.68
2023-01-07T12:09:29.363Z,8.69
2023-01-07T12:12:28.976Z,8.73
2023-01-07T12:15:02.263Z,8.74
2023-01-07T12:17:36.638Z,8.76
2023-01-07T12:20:40.882Z,8.77
2023-01-07T12:23:25.400Z,8.73
2023-01-07T12:26:05.091Z,8.75
2023-01-07T12:28:50.928Z,8.78
2023-01-07T12:31:37.254Z,8.77
2023-01-07T12:34:20.667Z,8.80
2023-01-07T12:37:00.732Z,8.84
2023-01-07T12:39:36.681Z,8.86
2023-01-07T12:42:15.828Z,8.91
2023-01-07T12:44:52.354Z,8.96
2023-01-07T12:47:32.287Z,9.00
2023-01-07T12:50:13.061Z,9.04
2023-01-07T12:52:50.842Z,9.09
2023-01-07T12:55:29.143Z,9.12
2023-01-07T12:58:12.762Z,9.08
2023-01-07T13:00:50.356Z,9.08
2023-01-07T13:03:33.634Z,9.07
2023-01-07T13:06:11.217Z,9.07
2023-01-07T13:08:48.359Z,9.05
2023-01-07T13:11:47.200Z,9.06
2023-01-07T13:14:24.861Z,9.03
2023-01-07T13:17:13.539Z,9.00
2023-01-07T13:19:45.352Z,9.05
2023-01-07T13:22:24.823Z,9.04
2023-01-07T13:25:12.439Z,9.04
2023-01-07T13:28:03.177Z,9.06
2023-01-07T13:30:47.445Z,9.09
2023-01-07T13:33:24.063Z,9.12
2023-01-07T13:36:15.843Z,9.10
2023-01-07T13:39:14.704Z,9.10
2023-01-07T13:42:00.313Z,9.11
2023-01-07T13:45:10.933Z,9.13
2023-01-07T13:47:47.312Z,9.14
2023-01-07T13:50:26.832Z,9.15
2023-01-07T13:53:01.063Z,9.21
2023-01-07T13:55:41.328Z,9.22
2023-01-07T13:58:44.683Z,9.24
2023-01-07T14:01:18.107Z,9.15
2023-01-07T14:03:51.655Z,9.15
2023-01-07T14:06:41.729Z,9.09
2023-01-07T14:09:28.088Z,9.03
2023-01-07T14:12:45.317Z,9.02
2023-01-07T14:15:38.385Z,9.11
2023-01-07T14:18:32.267Z,9.17
2023-01-07T14:21:18.690Z,9.21
2023-01-07T14:24:03.212Z,9.22
2023-01-07T14:26:40.332Z,9.16
2023-01-07T14:29:26.927Z,9.13
2023-01-07T14:32:30.031Z,9.18
2023-01-07T14:35:07.900Z,9.07
2023-01-07T14:37:42.307Z,9.02
2023-01-07T14:41:00.466Z,9.13
2023-01-07T14:44:05.943Z,9.14
2023-01-07T14:46:51.351Z,9.13
2023-01-07T14:49:44.925Z,9.18
2023-01-07T14:52:47.571Z,9.19
2023-01-07T14:55:58.707Z,9.13
2023-01-07T14:58:45.828Z,9.13
2023-01-07T15:01:41.166Z,9.09
2023-01-07T15:05:07.639Z,9.14
2023-01-07T15:07:43.387Z,9.15
2023-01-07T15:10:39.630Z,9.17
2023-01-07T15:13:42.647Z,9.19
2023-01-07T15:16:16.081Z,9.15
2023-01-07T15:18:50.831Z,9.09
2023-01-07T15:21:35.546Z,9.09
2023-01-07T15:24:15.734Z,9.05
2023-01-07T15:26:56.229Z,9.10
2023-01-07T15:29:36.694Z,9.15
2023-01-07T15:32:15.221Z,9.16
2023-01-07T15:34:47.986Z,9.12
2023-01-07T15:37:20.714Z,9.08
2023-01-07T15:39:56.162Z,9.10
2023-01-07T15:42:32.766Z,9.08
2023-01-07T15:45:05.633Z,9.05
2023-01-07T15:47:41.293Z,9.10
2023-01-07T15:50:31.762Z,9.11
2023-01-07T15:53:18.033Z,9.12
2023-01-07T15:55:57.117Z,9.15
2023-01-07T15:58:37.006Z,9.17
2023-01-07T16:01:16.531Z,9.15
2023-01-07T16:03:51.229Z,9.16
2023-01-07T16:06:33.523Z,9.18
2023-01-07T16:09:18.656Z,9.16
2023-01-07T16:11:51.118Z,9.18
2023-01-07T16:14:24.996Z,9.19
2023-01-07T16:17:16.419Z,9.16
2023-01-07T16:19:48.297Z,9.17
2023-01-07T16:22:22.801Z,9.17
2023-01-07T16:24:55.707Z,9.19
2023-01-07T16:27:31.587Z,9.22
2023-01-07T16:30:04.094Z,9.21
2023-01-07T16:32:36.238Z,9.19
2023-01-07T16:35:11.250Z,9.13
2023-01-07T16:37:44.027Z,9.14
2023-01-07T16:40:24.629Z,9.11
2023-01-07T16:42:57.415Z,9.13
2023-01-07T16:45:29.179Z,9.15
2023-01-07T16:48:20.222Z,9.09
2023-01-07T16:50:55.560Z,9.12
2023-01-07T16:53:31.015Z,9.10
2023-01-07T16:56:18.357Z,8.99
2023-01-07T16:58:55.433Z,8.94
2023-01-07T17:01:35.815Z,8.86
2023-01-07T17:04:17.317Z,8.86
2023-01-07T17:06:49.978Z,8.97
2023-01-07T17:09:27.382Z,9.03
2023-01-07T17:11:59.399Z,8.97
2023-01-07T17:14:51.772Z,8.96
2023-01-07T17:17:34.771Z,8.89
2023-01-07T17:20:15.224Z,8.95
2023-01-07T17:22:49.476Z,9.02
2023-01-07T17:25:28.387Z,9.06
2023-01-07T17:28:07.604Z,9.05
2023-01-07T17:30:41.563Z,9.07
2023-01-07T17:33:18.183Z,8.96
2023-01-07T17:35:50.115Z,8.90
2023-01-07T17:38:22.543Z,8.82
2023-01-07T17:40:54.425Z,8.86
2023-01-07T17:43:38.121Z,8.85
2023-01-07T17:46:13.683Z,8.79
2023-01-07T17:48:46.255Z,8.75
2023-01-07T17:51:18.555Z,8.76
2023-01-07T17:53:52.721Z,8.80
2023-01-07T17:56:25.062Z,8.78
2023-01-07T17:58:57.282Z,8.84
2023-01-07T18:01:29.747Z,8.89
2023-01-07T18:04:01.773Z,8.84
2023-01-07T18:06:35.136Z,8.84
2023-01-07T18:09:08.956Z,8.79
2023-01-07T18:12:02.204Z,8.67
2023-01-07T18:14:34.346Z,8.68
2023-01-07T18:17:07.478Z,8.63
2023-01-07T18:19:40.036Z,8.55
2023-01-07T18:22:12.060Z,8.51
2023-01-07T18:24:44.253Z,8.53
2023-01-07T18:27:18.193Z,8.51
2023-01-07T18:29:50.151Z,8.51
2023-01-07T18:32:22.431Z,8.47
2023-01-07T18:34:54.466Z,8.50
2023-01-07T18:37:26.676Z,8.52
2023-01-07T18:40:02.191Z,8.48
2023-01-07T18:42:34.980Z,8.44
2023-01-07T18:45:08.911Z,8.44
2023-01-07T18:47:43.158Z,8.42
2023-01-07T18:50:16.337Z,8.42
2023-01-07T18:52:48.162Z,8.45
2023-01-07T18:55:21.224Z,8.29
2023-01-07T18:57:51.619Z,8.27
2023-01-07T19:00:24.032Z,8.24
2023-01-07T19:02:58.207Z,8.22
2023-01-07T19:05:30.959Z,8.21
2023-01-07T19:08:03.394Z,8.13
2023-01-07T19:10:35.837Z,8.17
2023-01-07T19:13:08.005Z,8.22
2023-01-07T19:15:43.068Z,8.23
2023-01-07T19:18:15.416Z,8.23
2023-01-07T19:20:47.425Z,8.21
2023-01-07T19:23:19.589Z,8.10
2023-01-07T19:26:01.214Z,8.00
2023-01-07T19:28:33.305Z,8.01
2023-01-07T19:31:08.939Z,7.84
2023-01-07T19:33:41.405Z,7.89
2023-01-07T19:36:17.558Z,7.98
2023-01-07T19:38:50.239Z,7.91
2023-01-07T19:41:21.142Z,7.76
2023-01-07T19:43:59.120Z,7.84
2023-01-07T19:46:34.352Z,7.77
2023-01-07T19:49:09.047Z,7.80
2023-01-07T19:51:43.045Z,7.78
2023-01-07T19:54:17.117Z,7.80
2023-01-07T19:56:49.339Z,7.83
2023-01-07T19:59:22.716Z,7.77
2023-01-07T20:01:55.082Z,7.72
2023-01-07T20:04:28.471Z,7.60
2023-01-07T20:07:00.661Z,7.47
2023-01-07T20:09:33.566Z,7.47
2023-01-07T20:12:07.394Z,7.58
2023-01-07T20:14:40.270Z,7.63
2023-01-07T20:17:12.619Z,7.61
2023-01-07T20:19:45.486Z,7.57
2023-01-07T20:22:15.936Z,7.54
2023-01-07T20:24:47.993Z,7.57
2023-01-07T20:27:19.916Z,7.37
2023-01-07T20:29:51.669Z,7.47
2023-01-07T20:32:23.599Z,7.32
2023-01-07T20:34:55.356Z,7.26
2023-01-07T20:37:28.136Z,7.33
2023-01-07T20:40:00.221Z,7.38
2023-01-07T20:42:32.972Z,7.41
2023-01-07T20:45:05.326Z,7.37
2023-01-07T20:47:38.376Z,7.40
2023-01-07T20:50:10.920Z,7.46
2023-01-07T20:52:42.983Z,7.46
2023-01-07T20:55:14.803Z,7.45
2023-01-07T20:57:46.572Z,7.48
2023-01-07T21:00:19.432Z,7.49
2023-01-07T21:02:51.309Z,7.44
2023-01-07T21:05:24.761Z,7.39
2023-01-07T21:07:59.229Z,7.33
2023-01-07T21:10:31.599Z,7.35
2023-01-07T21:13:04.584Z,7.24
2023-01-07T21:15:38.498Z,7.17
2023-01-07T21:18:11.025Z,7.20
2023-01-07T21:20:44.785Z,7.18
2023-01-07T21:23:17.251Z,7.19
2023-01-07T21:25:50.704Z,7.19
2023-01-07T21:28:23.109Z,7.16
2023-01-07T21:30:55.623Z,7.06
2023-01-07T21:33:29.256Z,6.96
2023-01-07T21:36:01.805Z,6.97
2023-01-07T21:38:32.297Z,6.86
2023-01-07T21:41:08.258Z,6.92
2023-01-07T21:43:41.553Z,6.80
2023-01-07T21:46:15.434Z,6.69
2023-01-07T21:48:48.802Z,6.72
2023-01-07T21:51:22.505Z,6.64
2023-01-07T21:53:57.781Z,6.75
2023-01-07T21:56:32.656Z,6.81
2023-01-07T21:59:05.077Z,6.87
2023-01-07T22:01:37.118Z,6.79
2023-01-07T22:04:09.150Z,6.62
2023-01-07T22:06:41.948Z,6.53
2023-01-07T22:09:16.653Z,6.68
2023-01-07T22:11:48.793Z,6.57
2023-01-07T22:14:23.123Z,6.64
2023-01-07T22:16:55.708Z,6.70
2023-01-07T22:19:28.534Z,6.67
2023-01-07T22:22:01.337Z,6.65
2023-01-07T22:24:33.259Z,6.66
2023-01-07T22:27:05.328Z,6.61
2023-01-07T22:29:38.837Z,6.64
2023-01-07T22:32:10.630Z,6.59
2023-01-07T22:34:42.558Z,6.54
2023-01-07T22:37:18.667Z,6.51
2023-01-07T22:39:57.022Z,6.40
2023-01-07T22:42:33.226Z,6.40
2023-01-07T22:45:09.883Z,6.51
2023-01-07T22:47:46.634Z,6.52
2023-01-07T22:50:19.965Z,6.36
2023-01-07T22:52:52.976Z,6.48
2023-01-07T22:55:25.276Z,6.47
2023-01-07T22:57:57.175Z,6.51
2023-01-07T23:01:10.592Z,6.50
2023-01-07T23:03:41.304Z,6.50
2023-01-07T23:06:15.297Z,6.49
2023-01-07T23:08:47.545Z,6.56
2023-01-07T23:11:33.222Z,6.54
2023-01-07T23:14:05.311Z,6.44
2023-01-07T23:16:39.056Z,6.43
2023-01-07T23:19:11.195Z,6.45
2023-01-07T23:21:45.584Z,6.44
2023-01-07T23:24:17.689Z,6.38
2023-01-07T23:26:52.508Z,6.38
2023-01-07T23:29:24.565Z,6.36
2023-01-07T23:31:56.412Z,6.24
2023-01-07T23:34:28.797Z,6.31
2023-01-07T23:37:00.746Z,6.37
2023-01-07T23:39:32.767Z,6.34
2023-01-07T23:42:04.525Z,6.36
2023-01-07T23:44:36.443Z,6.28
2023-01-07T23:47:08.846Z,6.28
2023-01-07T23:49:40.792Z,6.29
2023-01-07T23:52:12.507Z,6.32
2023-01-07T23:54:44.588Z,6.33
2023-01-07T23:57:16.585Z,6.22
2023-01-07T23:59:48.464Z,6.22
